Time;durP1;ratioP1;P1;durP2;ratioP2;P2;SDS_P1;SDS_P2;PMS_P1;PMS_P2;Temp;Humidity;BMP_temperature;BMP_pressure;BME280_temperature;BME280_humidity;BME280_pressure;Samples;Min_cycle;Max_cycle;Signal;HPM_P1;HPM_P2
2023/07/11 05:30:06;;;;;;;1999.90;999.90;;;;;;;24.38;100.00;98177.19;5086967;27;1298146;-71
2023/07/11 05:32:31;;;;;;;1999.90;999.90;;;;;;;24.58;100.00;98175.03;5107418;28;20094;-72
2023/07/11 05:34:56;;;;;;;1999.90;999.90;;;;;;;24.50;100.00;98169.34;5108051;28;20496;-72
2023/07/11 05:37:23;;;;;;;1999.90;999.90;;;;;;;24.71;100.00;98173.59;5108387;28;20024;-72
2023/07/11 05:39:48;;;;;;;1999.90;999.90;;;;;;;24.83;100.00;98170.53;5108173;28;20058;-72
2023/07/11 05:42:14;;;;;;;1999.90;999.90;;;;;;;24.81;100.00;98167.31;5108593;28;20492;-72
2023/07/11 05:44:39;;;;;;;1999.90;999.90;;;;;;;24.78;100.00;98176.44;5108229;28;20114;-73
2023/07/11 05:47:04;;;;;;;1999.90;999.90;;;;;;;25.08;100.00;98180.00;5108523;28;20040;-72
2023/07/11 05:49:30;;;;;;;1999.90;999.90;;;;;;;25.30;100.00;98178.19;5108607;28;20028;-73
2023/07/11 05:51:55;;;;;;;1999.90;999.90;;;;;;;25.53;100.00;98176.81;5110755;28;20028;-72
2023/07/11 05:54:20;;;;;;;1999.90;999.90;;;;;;;25.55;100.00;98171.66;5107756;28;20054;-72
2023/07/11 05:56:46;;;;;;;1999.90;999.90;;;;;;;25.89;100.00;98166.66;5108179;28;20473;-71
2023/07/11 05:59:11;;;;;;;1999.90;999.90;;;;;;;25.42;100.00;98167.50;5106913;28;20031;-72
2023/07/11 06:01:36;;;;;;;1999.90;999.90;;;;;;;24.84;100.00;98167.34;5108523;28;20024;-71
2023/07/11 06:04:09;;;;;;;1999.90;999.90;;;;;;;25.15;100.00;98165.25;5108199;28;20027;-70
2023/07/11 06:06:41;;;;;;;1999.90;999.90;;;;;;;25.14;100.00;98158.84;5107932;28;20077;-72
2023/07/11 06:09:09;;;;;;;1999.90;999.90;;;;;;;25.22;100.00;98165.31;5107840;28;20039;-72
2023/07/11 06:11:34;;;;;;;1999.90;999.90;;;;;;;25.30;100.00;98158.59;5102463;28;20020;-72
2023/07/11 06:14:00;;;;;;;1999.90;999.90;;;;;;;24.80;100.00;98157.28;5086329;28;20089;-71
2023/07/11 06:16:25;;;;;;;1999.90;999.90;;;;;;;24.93;100.00;98147.47;5087591;28;20025;-72
2023/07/11 06:18:52;;;;;;;1999.90;999.90;;;;;;;25.26;100.00;98161.34;5087874;28;20051;-72
2023/07/11 06:21:17;;;;;;;1999.90;999.90;;;;;;;25.60;100.00;98158.44;5086180;28;20115;-72
2023/07/11 06:23:44;;;;;;;1999.90;999.90;;;;;;;26.29;100.00;98162.91;5089120;28;20533;-72
2023/07/11 06:26:10;;;;;;;1999.90;999.90;;;;;;;26.24;100.00;98166.09;5091449;28;20036;-72
2023/07/11 06:28:35;;;;;;;1999.90;999.90;;;;;;;25.10;100.00;98158.00;5086994;28;20056;-72
2023/07/11 06:31:01;;;;;;;1999.90;999.90;;;;;;;25.23;100.00;98156.53;5087221;28;20493;-72
2023/07/11 06:33:27;;;;;;;1999.90;999.90;;;;;;;25.58;100.00;98172.06;5087224;28;20457;-73
2023/07/11 06:35:54;;;;;;;1999.90;999.90;;;;;;;25.79;100.00;98166.59;5095349;28;20032;-72
2023/07/11 06:38:20;;;;;;;1999.90;999.90;;;;;;;26.05;100.00;98171.97;5107471;28;20043;-72
2023/07/11 06:40:56;;;;;;;1999.90;999.90;;;;;;;26.43;100.00;98171.41;5097435;28;20016;-73
2023/07/11 06:43:23;;;;;;;1999.90;999.90;;;;;;;25.97;100.00;98164.69;5094272;28;20035;-72
2023/07/11 06:45:50;;;;;;;1999.90;999.90;;;;;;;26.22;100.00;98162.84;5093705;28;20012;-72
2023/07/11 06:48:18;;;;;;;1999.90;999.90;;;;;;;27.02;100.00;98172.00;5093624;28;20111;-73
2023/07/11 06:50:50;;;;;;;1999.90;999.90;;;;;;;27.56;100.00;98174.47;5093605;28;20028;-72
2023/07/11 06:53:16;;;;;;;1999.90;999.90;;;;;;;27.84;100.00;98179.25;5093524;28;20107;-73
2023/07/11 06:55:46;;;;;;;1999.90;999.90;;;;;;;27.24;100.00;98168.00;5093575;28;20421;-73
2023/07/11 06:58:11;;;;;;;1999.90;999.90;;;;;;;27.37;100.00;98162.78;5093572;28;20043;-73
2023/07/11 07:00:37;;;;;;;1999.90;999.90;;;;;;;27.85;100.00;98157.56;5093261;28;20396;-73
2023/07/11 07:03:02;;;;;;;1999.90;999.90;;;;;;;27.10;100.00;98148.31;5093390;28;20023;-73
2023/07/11 07:05:27;;;;;;;1999.90;999.90;;;;;;;27.04;100.00;98144.28;5093335;28;20028;-73
2023/07/11 07:07:53;;;;;;;1999.90;999.90;;;;;;;26.91;100.00;98148.72;5093440;28;20032;-73
2023/07/11 07:10:18;;;;;;;1999.90;999.90;;;;;;;26.95;100.00;98152.31;5093348;28;20024;-72
2023/07/11 07:12:43;;;;;;;1999.90;999.90;;;;;;;26.99;100.00;98147.50;5092643;28;20028;-72
2023/07/11 07:15:09;;;;;;;1999.90;999.90;;;;;;;27.11;100.00;98153.53;5093408;28;20024;-72
2023/07/11 07:17:34;;;;;;;1999.90;999.90;;;;;;;27.84;100.00;98150.34;5093042;28;20032;-71
2023/07/11 07:20:00;;;;;;;1999.90;999.90;;;;;;;28.35;100.00;98144.97;5091667;28;20077;-72
2023/07/11 07:22:25;;;;;;;1999.90;999.90;;;;;;;28.35;100.00;98147.78;5092575;28;20055;-72
2023/07/11 07:24:50;;;;;;;1999.90;999.90;;;;;;;28.47;100.00;98147.34;5092704;28;20122;-73
2023/07/11 07:27:17;;;;;;;1999.90;999.90;;;;;;;28.60;100.00;98156.91;5093930;28;20020;-73
2023/07/11 07:29:43;;;;;;;1999.90;999.90;;;;;;;28.54;100.00;98144.47;5093758;28;20044;-72
2023/07/11 07:32:08;;;;;;;1999.90;999.90;;;;;;;28.63;100.00;98136.38;5094736;28;20031;-75
2023/07/11 07:34:33;;;;;;;1999.90;999.90;;;;;;;28.46;86.64;98139.31;5096154;28;20035;-72
2023/07/11 07:36:59;;;;;;;1999.90;999.90;;;;;;;28.31;85.72;98130.13;5093728;28;20072;-72
2023/07/11 07:39:24;;;;;;;1999.90;999.90;;;;;;;28.79;84.64;98135.94;5095291;28;20024;-72
2023/07/11 07:41:50;;;;;;;1999.90;999.90;;;;;;;28.64;80.65;98126.72;5094642;28;20094;-73
2023/07/11 07:44:15;;;;;;;1999.90;999.90;;;;;;;28.89;81.53;98132.25;5093135;28;20027;-71
2023/07/11 07:46:40;;;;;;;1999.90;999.90;;;;;;;28.92;80.46;98130.59;5092440;28;20046;-72
2023/07/11 07:49:06;;;;;;;1999.90;999.90;;;;;;;28.90;78.57;98121.78;5092665;28;20032;-72
2023/07/11 07:51:31;;;;;;;1999.90;999.90;;;;;;;29.15;76.48;98134.50;5091525;28;20477;-71
2023/07/11 07:53:56;;;;;;;1999.90;999.90;;;;;;;29.41;76.10;98129.47;5092398;28;20427;-72
2023/07/11 07:56:23;;;;;;;1999.90;999.90;;;;;;;29.37;74.94;98146.44;5092405;28;20028;-71
2023/07/11 07:58:50;;;;;;;1999.90;999.90;;;;;;;29.41;73.64;98135.94;5092158;28;20093;-71
2023/07/11 08:01:17;;;;;;;1999.90;999.90;;;;;;;29.65;75.07;98136.91;5092273;28;20049;-71
2023/07/11 08:03:44;;;;;;;1999.90;999.90;;;;;;;30.42;73.36;98131.69;5092350;28;20538;-71
2023/07/11 08:06:11;;;;;;;1999.90;999.90;;;;;;;30.93;67.75;98144.69;5092213;28;20102;-72
2023/07/11 08:08:36;;;;;;;1999.90;999.90;;;;;;;31.22;66.33;98143.09;5092877;28;20046;-70
2023/07/11 08:11:04;;;;;;;1999.90;999.90;;;;;;;31.29;62.39;98146.56;5093184;28;20040;-71
2023/07/11 08:13:30;;;;;;;1999.90;999.90;;;;;;;31.34;63.51;98145.31;5093774;28;20115;-72
2023/07/11 08:15:55;;;;;;;1999.90;999.90;;;;;;;31.39;61.96;98139.16;5094829;28;20056;-71
2023/07/11 08:18:21;;;;;;;1999.90;999.90;;;;;;;31.82;59.09;98139.25;5094139;28;20092;-71
2023/07/11 08:20:46;;;;;;;1999.90;999.90;;;;;;;32.16;58.05;98141.88;5093695;28;20473;-70
2023/07/11 08:23:11;;;;;;;1999.90;999.90;;;;;;;31.08;58.11;98140.47;5093528;28;20027;-72
2023/07/11 08:25:37;;;;;;;1999.90;999.90;;;;;;;31.36;58.16;98144.88;5093059;28;20031;-71
2023/07/11 08:28:05;;;;;;;1999.90;999.90;;;;;;;31.54;58.07;98140.56;5094520;28;20027;-72
2023/07/11 08:30:39;;;;;;;1999.90;999.90;;;;;;;32.18;56.55;98139.41;5092041;28;20025;-71
2023/07/11 08:33:05;;;;;;;1999.90;999.90;;;;;;;32.35;56.61;98132.59;5092181;28;20032;-72
2023/07/11 08:35:30;;;;;;;1999.90;999.90;;;;;;;32.65;55.17;98123.06;5092767;28;20036;-73
2023/07/11 08:37:56;;;;;;;1999.90;999.90;;;;;;;32.67;55.31;98131.94;5091395;28;20026;-71
2023/07/11 08:40:25;;;;;;;1999.90;999.90;;;;;;;32.84;49.92;98130.72;5090140;28;20488;-71
2023/07/11 08:42:51;;;;;;;1999.90;999.90;;;;;;;32.17;53.76;98126.50;5091909;28;20265;-70
2023/07/11 08:45:21;;;;;;;1999.90;999.90;;;;;;;32.08;52.28;98129.09;5091530;28;20032;-71
2023/07/11 08:47:59;;;;;;;1999.90;999.90;;;;;;;32.07;54.31;98130.31;5091230;28;20477;-70
2023/07/11 08:50:33;;;;;;;1999.90;999.90;;;;;;;32.22;51.59;98129.59;5091355;28;20039;-71
2023/07/11 08:53:24;;;;;;;1999.90;999.90;;;;;;;32.34;52.14;98128.16;5091353;28;20024;-71
2023/07/11 08:55:52;;;;;;;1999.90;999.90;;;;;;;31.69;55.24;98118.47;5091425;28;20020;-72
2023/07/11 08:58:26;;;;;;;1999.90;999.90;;;;;;;32.00;52.43;98127.59;5085248;28;20055;-72
2023/07/11 09:00:52;;;;;;;1999.90;999.90;;;;;;;31.13;55.38;98115.34;5088535;28;20389;-72
2023/07/11 09:03:29;;;;;;;1999.90;999.90;;;;;;;31.63;54.37;98118.16;5090161;28;20369;-72
2023/07/11 09:06:06;;;;;;;1999.90;999.90;;;;;;;32.45;53.38;98117.41;5090505;28;20477;-71
2023/07/11 09:08:32;;;;;;;1999.90;999.90;;;;;;;32.97;52.07;98113.84;5089168;28;20778;-72
2023/07/11 09:11:08;;;;;;;1999.90;999.90;;;;;;;33.27;48.75;98113.53;5091757;28;20043;-72
2023/07/11 09:14:18;;;;;;;1999.90;999.90;;;;;;;33.07;48.46;98122.09;5098910;28;20030;-74
2023/07/11 09:16:53;;;;;;;1999.90;999.90;;;;;;;31.78;53.32;98111.00;5045360;28;20055;-72
2023/07/11 09:19:40;;;;;;;1999.90;999.90;;;;;;;32.34;52.14;98105.47;5090471;28;20084;-72
2023/07/11 09:22:19;;;;;;;1999.90;999.90;;;;;;;32.32;51.54;98099.47;5090260;28;20058;-73
2023/07/11 09:25:07;;;;;;;1999.90;999.90;;;;;;;31.94;52.09;98106.69;5090511;28;20016;-72
2023/07/11 09:27:38;;;;;;;1999.90;999.90;;;;;;;32.09;53.47;98108.03;5090492;28;20031;-72
2023/07/11 09:30:18;;;;;;;1999.90;999.90;;;;;;;32.38;52.21;98096.91;5089976;28;20447;-72
2023/07/11 09:32:44;;;;;;;1999.90;999.90;;;;;;;32.75;51.38;98091.66;5090101;28;20020;-71
2023/07/11 09:35:31;;;;;;;1999.90;999.90;;;;;;;32.52;51.19;98103.06;5090371;28;20032;-71
2023/07/11 09:38:11;;;;;;;1999.90;999.90;;;;;;;32.84;49.67;98105.22;5090022;28;20028;-72
2023/07/11 09:41:01;;;;;;;1999.90;999.90;;;;;;;33.47;49.81;98110.59;5088908;28;20016;-72
2023/07/11 09:43:26;;;;;;;1999.90;999.90;;;;;;;33.69;48.99;98103.97;5089128;28;20072;-71
2023/07/11 09:45:51;;;;;;;1999.90;999.90;;;;;;;33.61;49.23;98098.94;5089990;28;20055;-71
2023/07/11 09:48:24;;;;;;;1999.90;999.90;;;;;;;33.20;51.17;98100.34;5090016;28;20659;-70
2023/07/11 09:50:53;;;;;;;1999.90;999.90;;;;;;;33.48;50.04;98098.81;5088894;28;20024;-69
2023/07/11 09:53:21;;;;;;;1999.90;999.90;;;;;;;33.71;50.92;98098.63;5088875;28;20556;-71
2023/07/11 09:55:53;;;;;;;1999.90;999.90;;;;;;;33.28;50.02;98092.44;5090171;28;20033;-71
2023/07/11 09:58:18;;;;;;;1999.90;999.90;;;;;;;33.58;50.22;98103.41;5089855;28;20024;-71
2023/07/11 10:00:48;;;;;;;1999.90;999.90;;;;;;;33.92;50.16;98098.06;5089905;28;20031;-72
2023/07/11 10:03:26;;;;;;;1999.90;999.90;;;;;;;34.21;49.20;98094.47;5089584;28;20265;-71
2023/07/11 10:05:52;;;;;;;1999.90;999.90;;;;;;;34.16;48.92;98089.31;5089894;28;20024;-72
2023/07/11 10:08:21;;;;;;;1999.90;999.90;;;;;;;34.30;49.91;98086.09;5089808;28;20043;-70
2023/07/11 10:10:49;;;;;;;1999.90;999.90;;;;;;;34.61;48.58;98097.78;5090373;28;20380;-71
2023/07/11 10:13:16;;;;;;;1999.90;999.90;;;;;;;34.31;47.96;98094.13;5089958;28;20008;-70
2023/07/11 10:15:42;;;;;;;1999.90;999.90;;;;;;;34.17;48.76;98082.41;5091952;28;20024;-72
2023/07/11 10:18:24;;;;;;;1999.90;999.90;;;;;;;34.37;50.28;98072.44;5093657;28;20036;-70
2023/07/11 10:20:53;;;;;;;1999.90;999.90;;;;;;;33.62;50.43;98086.31;5094113;28;20030;-71
2023/07/11 10:23:24;;;;;;;1999.90;999.90;;;;;;;33.09;52.30;98081.97;5093602;28;20043;-70
2023/07/11 10:26:14;;;;;;;1999.90;999.90;;;;;;;33.35;53.11;98078.09;5092181;28;20492;-71
2023/07/11 10:28:43;;;;;;;1999.90;999.90;;;;;;;33.83;51.78;98078.03;5091993;28;20055;-70
2023/07/11 10:31:17;;;;;;;1999.90;999.90;;;;;;;33.01;53.30;98072.81;5093377;28;20043;-71
2023/07/11 10:33:54;;;;;;;1999.90;999.90;;;;;;;32.64;53.50;98068.41;5093411;28;20016;-71
2023/07/11 10:36:30;;;;;;;1999.90;999.90;;;;;;;33.10;52.88;98069.41;5093590;28;20077;-70
2023/07/11 10:39:03;;;;;;;1999.90;999.90;;;;;;;32.84;54.78;98062.69;5094506;28;20015;-70
2023/07/11 10:41:42;;;;;;;1999.90;999.90;;;;;;;33.31;52.59;98063.97;5093315;28;20016;-72
2023/07/11 10:44:16;;;;;;;1999.90;999.90;;;;;;;33.97;52.38;98059.00;5077486;28;20012;-73
2023/07/11 10:46:47;;;;;;;;;;;;;;;34.30;50.94;98054.81;5105364;28;20024;-72
2023/07/11 10:49:16;;;;;;;1999.90;999.90;;;;;;;33.52;52.31;98051.25;5093965;28;19916;-72
2023/07/11 10:51:56;;;;;;;1999.90;999.90;;;;;;;32.94;54.98;98044.63;5092940;28;20028;-71
2023/07/11 10:54:52;;;;;;;1999.90;999.90;;;;;;;33.58;54.08;98043.81;5071433;28;20139;-72
2023/07/11 10:57:29;;;;;;;1999.90;999.90;;;;;;;33.82;52.94;98036.69;5092102;28;20026;-72
2023/07/11 10:59:54;;;;;;;1999.90;999.90;;;;;;;33.97;51.89;98039.91;5092751;28;20389;-70
2023/07/11 11:02:52;;;;;;;1999.90;999.90;;;;;;;34.21;50.04;98046.94;5091487;28;20020;-71
2023/07/11 11:05:40;;;;;;;1999.90;999.90;;;;;;;34.63;48.19;98044.88;5091075;28;20024;-70
2023/07/11 11:08:31;;;;;;;1999.90;999.90;;;;;;;35.03;48.37;98044.41;5092781;28;20016;-70
2023/07/11 11:11:01;;;;;;;1999.90;999.90;;;;;;;35.32;47.14;98045.09;5060864;28;20044;-70
2023/07/11 11:13:56;;;;;;;1999.90;999.90;;;;;;;35.36;46.33;98045.78;5092227;28;20489;-70
2023/07/11 11:16:31;;;;;;;1999.90;999.90;;;;;;;35.95;45.24;98045.72;5078598;28;20024;-71
2023/07/11 11:19:18;;;;;;;1999.90;999.90;;;;;;;36.12;45.32;98039.84;5092444;28;20032;-70
2023/07/11 11:21:49;;;;;;;1999.90;999.90;;;;;;;36.04;45.17;98035.63;5092286;28;20024;-71
2023/07/11 11:24:38;;;;;;;1999.90;999.90;;;;;;;35.92;44.77;98021.00;5094156;28;20070;-71
2023/07/11 11:27:25;;;;;;;1999.90;999.90;;;;;;;35.95;44.98;98019.25;5092537;28;20031;-69
2023/07/11 11:30:15;;;;;;;1999.90;999.90;;;;;;;35.73;45.20;98021.31;5092360;28;20483;-69
2023/07/11 11:33:00;;;;;;;1999.90;999.90;;;;;;;35.76;45.75;98018.34;5092293;28;20027;-70
2023/07/11 11:35:48;;;;;;;;;;;;;;;35.50;46.54;98016.78;5091672;28;20035;-69
2023/07/11 11:38:21;;;;;;;1999.90;999.90;;;;;;;35.62;46.55;98007.44;5076809;28;19945;-71
2023/07/11 11:40:51;;;;;;;1999.90;999.90;;;;;;;34.63;47.07;97996.56;5092396;28;20027;-72
2023/07/11 11:43:19;;;;;;;1999.90;999.90;;;;;;;35.11;47.44;98005.97;5091795;28;20129;-70
2023/07/11 11:45:45;;;;;;;1999.90;999.90;;;;;;;34.47;49.31;97996.63;5092346;28;20124;-71
2023/07/11 11:48:24;;;;;;;1999.90;999.90;;;;;;;34.00;51.16;97978.56;5090389;28;20065;-70
2023/07/11 11:50:51;;;;;;;1999.90;999.90;;;;;;;34.06;50.42;97985.28;5091769;28;20480;-70
2023/07/11 11:53:32;;;;;;;1999.90;999.90;;;;;;;34.73;48.65;97992.56;5091637;28;20020;-70
2023/07/11 11:55:59;;;;;;;1999.90;999.90;;;;;;;35.06;48.62;97993.09;5091765;28;20044;-72
2023/07/11 11:58:27;;;;;;;1999.90;999.90;;;;;;;35.41;46.67;97991.09;5091631;28;20366;-69
2023/07/11 12:00:55;;;;;;;1999.90;999.90;;;;;;;35.53;45.63;97992.28;5091773;28;20020;-70
2023/07/11 12:03:42;;;;;;;1999.90;999.90;;;;;;;35.42;45.24;97998.38;5091067;28;20032;-70
2023/07/11 12:06:36;;;;;;;1999.90;999.90;;;;;;;35.35;45.24;97990.91;5075557;28;20028;-70
2023/07/11 12:09:17;;;;;;;1999.90;999.90;;;;;;;35.58;46.06;97986.06;5091257;28;20032;-72
2023/07/11 12:12:04;;;;;;;1999.90;999.90;;;;;;;35.41;47.28;97991.91;5091517;28;20824;-69
2023/07/11 12:14:36;;;;;;;1999.90;999.90;;;;;;;34.95;47.96;97975.59;5050360;28;20466;-70
2023/07/11 12:17:02;;;;;;;1999.90;999.90;;;;;;;34.24;49.18;97971.41;5091622;28;20435;-72
2023/07/11 12:19:41;;;;;;;1999.90;999.90;;;;;;;34.35;49.05;97974.69;5091167;28;20554;-71
2023/07/11 12:22:07;;;;;;;1999.90;999.90;;;;;;;34.66;49.60;97966.41;5073053;28;20076;-72
2023/07/11 12:24:33;;;;;;;1999.90;999.90;;;;;;;34.99;49.43;97970.59;5090919;28;20028;-71
2023/07/11 12:27:17;;;;;;;1999.90;999.90;;;;;;;34.96;50.02;97963.75;5091256;28;20039;-70
2023/07/11 12:29:51;;;;;;;1999.90;999.90;;;;;;;35.15;50.19;97950.53;5090739;28;20472;-70
2023/07/11 12:32:31;;;;;;;1999.90;999.90;;;;;;;35.48;50.14;97965.22;5091085;28;20031;-70
2023/07/11 12:35:02;;;;;;;1999.90;999.90;;;;;;;35.66;49.04;97956.84;5091051;28;20055;-70
2023/07/11 12:37:28;;;;;;;1999.90;999.90;;;;;;;35.48;49.63;97951.00;5090691;28;20031;-70
2023/07/11 12:40:17;;;;;;;1999.90;999.90;;;;;;;34.60;51.68;97957.66;5091322;28;20114;-70
2023/07/11 12:42:55;;;;;;;1999.90;999.90;;;;;;;34.61;51.82;97945.06;5096170;28;20056;-70
2023/07/11 12:45:26;;;;;;;1999.90;999.90;;;;;;;34.37;53.61;97944.56;5091041;28;20021;-69
2023/07/11 12:48:19;;;;;;;1999.90;999.90;;;;;;;33.99;54.40;97928.72;5090753;28;20023;-71
2023/07/11 12:51:01;;;;;;;1999.90;999.90;;;;;;;34.35;54.20;97937.75;5083240;28;20108;-70
2023/07/11 12:53:27;;;;;;;1999.90;999.90;;;;;;;34.14;53.73;97939.22;5090549;28;20028;-73
2023/07/11 12:55:54;;;;;;;1999.90;999.90;;;;;;;34.08;54.42;97932.47;5090769;28;20020;-69
2023/07/11 12:58:29;;;;;;;1999.90;999.90;;;;;;;34.11;54.30;97925.13;5089979;28;20012;-70
2023/07/11 13:00:57;;;;;;;1999.90;999.90;;;;;;;34.22;53.96;97934.91;5092407;28;20023;-70
2023/07/11 13:03:30;;;;;;;1999.90;999.90;;;;;;;34.52;52.44;97935.59;5093337;28;20095;-70
2023/07/11 13:05:58;;;;;;;1999.90;999.90;;;;;;;34.78;52.05;97923.75;5090599;28;20028;-71
2023/07/11 13:08:29;;;;;;;1999.90;999.90;;;;;;;34.94;53.12;97929.28;5090649;28;20502;-67
2023/07/11 13:10:59;;;;;;;1999.90;999.90;;;;;;;34.97;51.54;97928.38;5090192;28;20036;-72
2023/07/11 13:13:27;;;;;;;1999.90;999.90;;;;;;;34.33;52.27;97926.06;5089982;28;20016;-73
2023/07/11 13:15:53;;;;;;;1999.90;999.90;;;;;;;34.18;53.43;97928.53;5090695;28;20073;-73
2023/07/11 13:18:34;;;;;;;1999.90;999.90;;;;;;;34.34;53.97;97925.56;5090566;28;20024;-73
2023/07/11 13:21:02;;;;;;;1999.90;999.90;;;;;;;34.37;53.86;97926.72;5087825;28;20032;-71
2023/07/11 13:23:30;;;;;;;1999.90;999.90;;;;;;;34.31;53.18;97920.00;5089480;28;20023;-72
2023/07/11 13:25:57;;;;;;;1999.90;999.90;;;;;;;33.78;54.78;97913.09;5090160;28;20077;-72
2023/07/11 13:28:31;;;;;;;1999.90;999.90;;;;;;;34.29;53.79;97916.84;5089688;28;20040;-73
2023/07/11 13:31:02;;;;;;;1999.90;999.90;;;;;;;34.42;53.90;97920.47;5086159;28;20035;-74
2023/07/11 13:33:36;;;;;;;1999.90;999.90;;;;;;;34.51;53.33;97923.41;5089843;28;20059;-73
2023/07/11 13:36:02;;;;;;;1999.90;999.90;;;;;;;34.39;53.38;97924.22;5089301;28;20120;-73
2023/07/11 13:38:40;;;;;;;1999.90;999.90;;;;;;;34.65;52.32;97922.97;5091501;28;20367;-71
2023/07/11 13:41:15;;;;;;;1999.90;999.90;;;;;;;34.53;52.54;97920.91;5090893;28;20115;-72
2023/07/11 13:43:40;;;;;;;;;;;;;;;34.72;51.45;97916.25;5088709;28;20362;-73
2023/07/11 13:46:05;;;;;;;1999.90;999.90;;;;;;;34.79;52.53;97918.84;5090426;28;20047;-71
2023/07/11 13:48:31;;;;;;;1999.90;999.90;;;;;;;34.45;52.50;97916.72;5089939;28;20084;-72
2023/07/11 13:51:13;;;;;;;1999.90;999.90;;;;;;;34.48;51.98;97912.97;5092242;28;20267;-71
2023/07/11 13:53:43;;;;;;;1999.90;999.90;;;;;;;34.20;52.91;97919.56;5092024;28;20024;-72
2023/07/11 13:56:10;;;;;;;1999.90;999.90;;;;;;;33.91;52.91;97911.88;5094276;28;20012;-71
2023/07/11 13:58:35;;;;;;;1999.90;999.90;;;;;;;34.00;53.00;97910.41;5092902;28;20118;-72
2023/07/11 14:01:00;;;;;;;1999.90;999.90;;;;;;;33.92;53.55;97909.84;5093798;28;20057;-75
2023/07/11 14:03:26;;;;;;;1999.90;999.90;;;;;;;33.86;53.02;97918.13;5094502;28;20024;-71
2023/07/11 14:05:54;;;;;;;1999.90;999.90;;;;;;;33.70;52.06;97914.56;5092793;28;20028;-72
2023/07/11 14:08:19;;;;;;;1999.90;999.90;;;;;;;33.85;52.61;97915.75;5093831;28;20465;-72
2023/07/11 14:10:46;;;;;;;1999.90;999.90;;;;;;;34.03;52.04;97909.50;5093517;28;20035;-71
2023/07/11 14:13:32;;;;;;;1999.90;999.90;;;;;;;34.16;51.79;97907.50;5093982;28;20473;-73
2023/07/11 14:15:57;;;;;;;1999.90;999.90;;;;;;;34.24;51.04;97903.97;5087137;28;20044;-73
2023/07/11 14:18:23;;;;;;;1999.90;999.90;;;;;;;34.41;50.42;97911.16;5097538;28;20020;-72
2023/07/11 14:20:48;;;;;;;1999.90;999.90;;;;;;;34.69;50.60;97909.44;5100884;28;20268;-74
2023/07/11 14:23:24;;;;;;;1999.90;999.90;;;;;;;34.72;49.80;97910.56;5096838;28;20413;-74
2023/07/11 14:25:50;;;;;;;1999.90;999.90;;;;;;;34.54;50.02;97911.13;5100630;28;20028;-74
2023/07/11 14:28:16;;;;;;;1999.90;999.90;;;;;;;34.47;50.52;97914.22;5101930;28;20040;-73
2023/07/11 14:30:42;;;;;;;1999.90;999.90;;;;;;;34.52;49.83;97913.66;5100241;28;20024;-73
2023/07/11 14:33:13;;;;;;;1999.90;999.90;;;;;;;34.61;49.67;97922.31;5097334;28;20539;-72
2023/07/11 14:35:39;;;;;;;1999.90;999.90;;;;;;;34.59;49.22;97919.09;5093663;28;20062;-73
2023/07/11 14:38:12;;;;;;;1999.90;999.90;;;;;;;34.50;49.87;97924.66;5093776;28;20063;-73
2023/07/11 14:40:38;;;;;;;1999.90;999.90;;;;;;;34.11;51.15;97916.59;5094327;28;20024;-73
2023/07/11 14:43:14;;;;;;;1999.90;999.90;;;;;;;34.47;50.71;97919.09;5093683;28;20081;-72
2023/07/11 14:45:40;;;;;;;1999.90;999.90;;;;;;;34.62;51.34;97923.88;5093214;28;20038;-72
2023/07/11 14:48:14;;;;;;;1999.90;999.90;;;;;;;34.78;50.70;97923.75;5092678;28;20103;-72
2023/07/11 14:50:40;;;;;;;1999.90;999.90;;;;;;;34.54;51.05;97918.88;5093180;28;20354;-72
2023/07/11 14:53:05;;;;;;;1999.90;999.90;;;;;;;34.63;51.91;97908.44;5092597;28;20043;-73
2023/07/11 14:55:30;;;;;;;1999.90;999.90;;;;;;;34.56;51.79;97905.78;5092634;28;20035;-73
2023/07/11 14:57:56;;;;;;;1999.90;999.90;;;;;;;34.47;51.99;97902.03;5092929;28;20036;-72
2023/07/11 15:00:23;;;;;;;1999.90;999.90;;;;;;;34.57;51.33;97901.69;5090905;28;20334;-72
2023/07/11 15:02:49;;;;;;;1999.90;999.90;;;;;;;34.19;52.17;97895.22;5092247;28;20749;-73
2023/07/11 15:05:24;;;;;;;1999.90;999.90;;;;;;;34.13;51.86;97885.69;5092720;28;20028;-72
2023/07/11 15:07:53;;;;;;;;;;;;;;;34.04;52.12;97891.22;5093291;28;20078;-72
2023/07/11 15:10:20;;;;;;;1999.90;999.90;;;;;;;33.87;53.45;97884.84;5091018;28;19912;-71
2023/07/11 15:12:46;;;;;;;1999.90;999.90;;;;;;;33.89;53.81;97874.63;5093281;28;20090;-72
2023/07/11 15:15:15;;;;;;;1999.90;999.90;;;;;;;33.58;54.14;97873.50;5094593;28;20478;-72
2023/07/11 15:17:41;;;;;;;1999.90;999.90;;;;;;;33.58;54.79;97862.16;5092299;28;20121;-72
2023/07/11 15:20:12;;;;;;;1999.90;999.90;;;;;;;33.57;55.49;97865.47;5092678;28;20115;-72
2023/07/11 15:22:41;;;;;;;1999.90;999.90;;;;;;;33.65;55.27;97864.81;5091819;28;20112;-72
2023/07/11 15:25:34;;;;;;;1999.90;999.90;;;;;;;33.64;55.58;97865.28;5090515;28;20065;-71
2023/07/11 15:28:00;;;;;;;1999.90;999.90;;;;;;;33.60;55.19;97864.59;5090322;28;20066;-72
2023/07/11 15:30:26;;;;;;;1999.90;999.90;;;;;;;33.73;55.11;97860.53;5091510;28;20038;-72
2023/07/11 15:32:52;;;;;;;1999.90;999.90;;;;;;;33.70;55.31;97858.59;5091666;28;20097;-72
2023/07/11 15:35:21;;;;;;;1999.90;999.90;;;;;;;33.96;54.57;97859.41;5091968;28;20025;-72
2023/07/11 15:37:47;;;;;;;1999.90;999.90;;;;;;;34.16;53.64;97862.06;5091308;28;20077;-72
2023/07/11 15:40:17;;;;;;;1999.90;999.90;;;;;;;34.13;53.83;97863.75;5091571;28;20066;-72
2023/07/11 15:42:43;;;;;;;1999.90;999.90;;;;;;;34.07;54.10;97876.13;5092104;28;20031;-72
2023/07/11 15:45:24;;;;;;;1999.90;999.90;;;;;;;34.13;54.16;97871.50;5090343;28;20016;-72
2023/07/11 15:47:49;;;;;;;1999.90;999.90;;;;;;;34.23;54.13;97878.88;5091848;28;20027;-72
2023/07/11 15:50:18;;;;;;;1999.90;999.90;;;;;;;33.95;53.28;97888.25;5092320;28;20463;-73
2023/07/11 15:52:43;;;;;;;1999.90;999.90;;;;;;;33.83;53.70;97889.84;5092210;28;20024;-72
2023/07/11 15:55:16;;;;;;;1999.90;999.90;;;;;;;33.73;54.36;97885.28;5091299;28;20016;-71
2023/07/11 15:57:42;;;;;;;1999.90;999.90;;;;;;;33.50;54.95;97889.16;5089375;28;20024;-72
2023/07/11 16:00:29;;;;;;;1999.90;999.90;;;;;;;33.34;55.14;97883.56;5090128;28;20024;-73
2023/07/11 16:02:55;;;;;;;1999.90;999.90;;;;;;;33.18;55.78;97877.94;5090782;28;20019;-72
2023/07/11 16:05:23;;;;;;;1999.90;999.90;;;;;;;33.14;56.54;97878.06;5090285;28;20023;-74
2023/07/11 16:07:49;;;;;;;1999.90;999.90;;;;;;;33.26;56.21;97880.13;5092058;28;20024;-79
2023/07/11 16:10:37;;;;;;;1999.90;999.90;;;;;;;32.87;56.73;97884.00;5102138;28;20016;-76
2023/07/11 16:13:03;;;;;;;1999.90;999.90;;;;;;;32.80;57.42;97884.19;5092860;28;20032;-74
2023/07/11 16:15:31;;;;;;;1999.90;999.90;;;;;;;32.64;57.59;97887.03;5091153;28;20042;-74
2023/07/11 16:17:57;;;;;;;1999.90;999.90;;;;;;;32.53;57.95;97886.50;5090864;28;20034;-75
2023/07/11 16:20:26;;;;;;;1999.90;999.90;;;;;;;32.49;58.26;97882.94;5091456;28;20024;-75
2023/07/11 16:22:52;;;;;;;1999.90;999.90;;;;;;;32.59;57.91;97875.44;5091061;28;20048;-76
2023/07/11 16:25:18;;;;;;;1999.90;999.90;;;;;;;32.57;58.50;97878.75;5084996;28;21178;-73
2023/07/11 16:27:48;;;;;;;1999.90;999.90;;;;;;;32.40;58.98;97868.59;5091603;28;20055;-73
2023/07/11 16:30:25;;;;;;;1999.90;999.90;;;;;;;32.55;58.54;97869.84;5091099;28;20105;-73
2023/07/11 16:32:52;;;;;;;1999.90;999.90;;;;;;;32.47;58.62;97879.78;5089742;28;20111;-74
2023/07/11 16:35:20;;;;;;;1999.90;999.90;;;;;;;32.57;57.74;97892.91;5091730;28;20032;-78
2023/07/11 16:37:47;;;;;;;1999.90;999.90;;;;;;;32.54;57.58;97887.28;5091373;28;20054;-76
2023/07/11 16:40:22;;;;;;;1999.90;999.90;;;;;;;32.65;57.41;97899.16;5091525;28;20416;-77